createdAt,value
2018-07-11T00:01:14.974Z,10.10
2018-07-11T00:03:46.137Z,9.00
2018-07-11T00:06:15.872Z,8.30
2018-07-11T00:08:44.246Z,8.30
2018-07-11T00:11:12.893Z,9.07
2018-07-11T00:13:43.529Z,8.40
2018-07-11T00:16:12.657Z,8.60
2018-07-11T00:18:41.052Z,8.87
2018-07-11T00:21:09.477Z,7.73
2018-07-11T00:23:38.000Z,7.70
2018-07-11T00:26:07.420Z,8.40
2018-07-11T00:28:35.789Z,8.57
2018-07-11T00:31:04.193Z,8.40
2018-07-11T00:33:32.532Z,8.43
2018-07-11T00:36:01.020Z,8.47
2018-07-11T00:38:29.625Z,7.67
2018-07-11T00:40:58.852Z,8.30
2018-07-11T00:43:28.064Z,9.33
2018-07-11T00:45:56.505Z,8.77
2018-07-11T00:48:24.889Z,8.67
2018-07-11T00:50:53.273Z,8.77
2018-07-11T00:53:22.724Z,8.00
2018-07-11T00:55:51.148Z,9.10
2018-07-11T00:59:28.892Z,9.83
2018-07-11T01:02:02.288Z,9.27
2018-07-11T01:04:30.748Z,10.00
2018-07-11T01:07:00.743Z,9.37
2018-07-11T01:09:30.582Z,9.57
2018-07-11T01:11:59.025Z,8.53
2018-07-11T01:14:27.470Z,9.33
2018-07-11T01:16:55.904Z,8.30
2018-07-11T01:19:24.361Z,8.50
2018-07-11T01:22:01.588Z,9.27
2018-07-11T01:24:31.134Z,8.33
2018-07-11T01:27:00.245Z,7.47
2018-07-11T01:29:28.624Z,7.53
2018-07-11T01:31:57.039Z,7.40
2018-07-11T01:34:25.384Z,7.60
2018-07-11T01:36:53.805Z,7.50
2018-07-11T01:39:22.220Z,7.70
2018-07-11T01:41:50.774Z,7.73
2018-07-11T01:44:19.129Z,8.77
2018-07-11T01:46:48.857Z,8.90
2018-07-11T01:49:17.274Z,9.13
2018-07-11T01:51:57.654Z,12.90
2018-07-11T01:54:26.857Z,13.67
2018-07-11T01:56:55.248Z,15.70
2018-07-11T01:59:27.056Z,15.60
2018-07-11T02:01:55.789Z,16.53
2018-07-11T02:04:24.208Z,18.43
2018-07-11T02:06:52.800Z,16.93
2018-07-11T02:09:21.234Z,17.40
2018-07-11T02:11:49.677Z,16.90
2018-07-11T02:14:18.160Z,16.57
2018-07-11T02:16:46.595Z,17.20
2018-07-11T02:19:15.368Z,15.20
2018-07-11T02:21:43.808Z,14.93
2018-07-11T02:24:12.189Z,15.43
2018-07-11T02:26:40.601Z,14.80
2018-07-11T02:29:09.036Z,15.90
2018-07-11T02:31:37.423Z,15.90
2018-07-11T02:34:05.885Z,16.60
2018-07-11T02:36:34.265Z,16.47
2018-07-11T02:39:02.761Z,16.80
2018-07-11T02:41:31.149Z,16.00
2018-07-11T02:43:59.549Z,13.77
2018-07-11T02:46:33.338Z,15.60
2018-07-11T02:49:01.765Z,14.40
2018-07-11T02:51:30.192Z,14.70
2018-07-11T02:53:59.170Z,15.13
2018-07-11T02:56:27.570Z,16.93
2018-07-11T02:58:55.940Z,17.90
2018-07-11T03:01:24.289Z,15.63
2018-07-11T03:03:53.314Z,15.20
2018-07-11T03:06:21.667Z,16.33
2018-07-11T03:08:50.049Z,16.57
2018-07-11T03:11:18.409Z,15.50
2018-07-11T03:13:46.780Z,16.83
2018-07-11T03:17:18.376Z,17.37
2018-07-11T03:19:46.782Z,20.77
2018-07-11T03:22:15.502Z,25.77
2018-07-11T03:24:44.006Z,25.03
2018-07-11T03:27:12.601Z,26.20
2018-07-11T03:29:41.229Z,26.00
2018-07-11T03:32:09.634Z,28.53
2018-07-11T03:34:38.022Z,28.03
2018-07-11T03:37:06.513Z,29.10
2018-07-11T03:39:34.941Z,27.97
2018-07-11T03:42:03.369Z,28.47
2018-07-11T03:44:31.800Z,29.47
2018-07-11T03:47:00.181Z,27.33
2018-07-11T03:49:28.545Z,28.23
2018-07-11T03:51:56.900Z,27.70
2018-07-11T03:54:25.374Z,23.50
2018-07-11T03:56:53.701Z,22.53
2018-07-11T03:59:22.087Z,22.10
2018-07-11T04:01:50.413Z,23.67
2018-07-11T04:04:18.765Z,22.57
2018-07-11T04:06:47.096Z,21.60
2018-07-11T04:09:15.485Z,23.57
2018-07-11T04:11:43.857Z,23.83
2018-07-11T04:14:15.100Z,25.00
2018-07-11T04:16:43.457Z,24.43
2018-07-11T04:19:11.866Z,23.83
2018-07-11T04:21:40.133Z,22.80
2018-07-11T04:24:08.540Z,23.13
2018-07-11T04:26:36.949Z,23.30
2018-07-11T04:29:05.337Z,23.67
2018-07-11T04:31:33.705Z,22.30
2018-07-11T04:34:02.096Z,20.97
2018-07-11T04:36:30.462Z,22.63
2018-07-11T04:38:58.869Z,22.23
2018-07-11T04:41:27.244Z,23.00
2018-07-11T04:43:55.644Z,22.40
2018-07-11T04:46:24.053Z,22.07
2018-07-11T04:48:52.456Z,24.63
2018-07-11T04:51:20.861Z,24.50
2018-07-11T04:53:49.299Z,26.20
2018-07-11T04:56:17.702Z,26.03
2018-07-11T04:58:46.128Z,26.47
2018-07-11T05:01:14.416Z,27.33
2018-07-11T05:03:42.796Z,25.53
2018-07-11T05:06:11.137Z,23.40
2018-07-11T05:08:39.493Z,23.67
2018-07-11T05:11:07.889Z,24.70
2018-07-11T05:13:36.333Z,25.63
2018-07-11T05:16:04.737Z,24.50
2018-07-11T05:18:33.084Z,25.10
2018-07-11T05:21:01.432Z,22.67
2018-07-11T05:23:29.765Z,25.10
2018-07-11T05:25:58.084Z,26.10
2018-07-11T05:28:26.419Z,26.03
2018-07-11T05:30:54.764Z,26.70
2018-07-11T05:33:23.098Z,27.43
2018-07-11T05:35:51.469Z,25.70
2018-07-11T05:38:19.850Z,25.13
2018-07-11T05:40:48.337Z,23.47
2018-07-11T05:43:16.724Z,25.03
2018-07-11T05:45:45.076Z,26.13
2018-07-11T05:48:13.434Z,23.50
2018-07-11T05:50:41.749Z,24.73
2018-07-11T05:53:10.101Z,22.20
2018-07-11T05:55:38.491Z,21.90
2018-07-11T05:58:06.796Z,21.63
2018-07-11T06:00:35.132Z,19.77
2018-07-11T06:03:03.493Z,21.30
2018-07-11T06:05:32.010Z,20.70
2018-07-11T06:08:00.264Z,22.70
2018-07-11T06:10:28.610Z,24.53
2018-07-11T06:12:56.978Z,25.63
2018-07-11T06:15:25.320Z,26.33
2018-07-11T06:17:53.640Z,25.90
2018-07-11T06:20:21.993Z,24.37
2018-07-11T06:22:50.634Z,25.10
2018-07-11T06:25:18.973Z,23.70
2018-07-11T06:27:47.312Z,22.83
2018-07-11T06:30:15.698Z,23.87
2018-07-11T06:32:44.050Z,24.23
2018-07-11T06:35:12.414Z,22.23
2018-07-11T06:37:40.740Z,22.60
2018-07-11T06:40:09.153Z,25.23
2018-07-11T06:42:37.493Z,24.87
2018-07-11T06:45:05.885Z,25.67
2018-07-11T06:47:34.213Z,24.90
2018-07-11T06:50:02.585Z,24.00
2018-07-11T06:52:30.984Z,25.10
2018-07-11T06:54:59.369Z,24.70
2018-07-11T06:57:29.225Z,24.90
2018-07-11T06:59:57.573Z,23.87
2018-07-11T07:02:25.946Z,23.50
2018-07-11T07:04:54.346Z,22.50
2018-07-11T07:07:22.692Z,23.10
2018-07-11T07:09:51.057Z,22.00
2018-07-11T07:12:19.405Z,24.37
2018-07-11T07:14:47.765Z,23.70
2018-07-11T07:17:16.112Z,22.10
2018-07-11T07:19:44.491Z,20.70
2018-07-11T07:22:12.840Z,25.03
2018-07-11T07:24:41.224Z,21.67
2018-07-11T07:27:09.601Z,21.27
2018-07-11T07:29:37.936Z,23.10
2018-07-11T07:32:06.329Z,26.93
2018-07-11T07:34:34.706Z,27.33
2018-07-11T07:37:03.077Z,26.13
2018-07-11T07:39:31.486Z,26.30
2018-07-11T07:41:59.890Z,27.40
2018-07-11T07:44:28.244Z,26.40
2018-07-11T07:46:59.683Z,26.20
2018-07-11T07:49:28.925Z,25.77
2018-07-11T07:51:57.749Z,28.27
2018-07-11T07:54:26.413Z,27.47
2018-07-11T07:56:54.821Z,27.97
2018-07-11T07:59:24.270Z,27.90
2018-07-11T08:01:52.729Z,26.27
2018-07-11T08:04:21.125Z,26.33
2018-07-11T08:06:49.515Z,26.10
2018-07-11T08:09:17.966Z,26.07
2018-07-11T08:11:46.348Z,26.97
2018-07-11T08:14:14.678Z,26.60
2018-07-11T08:16:43.065Z,28.17
2018-07-11T08:19:11.389Z,26.10
2018-07-11T08:21:39.743Z,26.30
2018-07-11T08:24:19.385Z,27.13
2018-07-11T08:27:19.748Z,27.50
2018-07-11T08:30:00.154Z,27.37
2018-07-11T08:32:45.419Z,27.40
2018-07-11T08:35:26.973Z,26.30
2018-07-11T08:38:10.617Z,26.80
2018-07-11T08:40:51.892Z,27.93
2018-07-11T08:43:32.100Z,28.43
2018-07-11T08:46:17.737Z,28.77
2018-07-11T08:51:09.640Z,27.50
2018-07-11T08:54:21.573Z,26.47
2018-07-11T08:59:00.961Z,24.73
2018-07-11T09:03:46.025Z,23.83
2018-07-11T09:06:31.141Z,20.67
2018-07-11T09:09:06.215Z,20.57
2018-07-11T09:11:45.592Z,21.43
2018-07-11T09:14:27.317Z,21.23
2018-07-11T09:18:10.809Z,18.77
2018-07-11T09:21:26.083Z,17.50
2018-07-11T09:24:02.726Z,14.37
2018-07-11T09:26:31.069Z,15.70
2018-07-11T09:28:59.416Z,14.30
2018-07-11T09:31:27.809Z,15.80
2018-07-11T09:33:57.169Z,13.77
2018-07-11T09:36:25.550Z,14.57
2018-07-11T09:38:54.364Z,14.90
2018-07-11T09:41:22.709Z,13.37
2018-07-11T09:43:51.077Z,12.70
2018-07-11T09:46:19.489Z,13.07
2018-07-11T09:48:47.901Z,11.50
2018-07-11T09:51:16.304Z,12.07
2018-07-11T09:53:44.831Z,11.70
2018-07-11T09:56:13.261Z,11.90
2018-07-11T09:58:42.005Z,10.57
2018-07-11T10:01:15.905Z,10.07
2018-07-11T10:03:44.322Z,9.90
2018-07-11T10:06:12.781Z,11.40
2018-07-11T10:08:41.173Z,10.27
2018-07-11T10:11:09.526Z,9.57
2018-07-11T10:13:37.968Z,9.30
2018-07-11T10:16:06.338Z,10.70
2018-07-11T10:18:34.725Z,10.23
2018-07-11T10:21:03.090Z,10.53
2018-07-11T10:23:31.453Z,10.50
2018-07-11T10:25:59.898Z,9.30
2018-07-11T10:28:28.270Z,9.80
2018-07-11T10:30:56.668Z,8.47
2018-07-11T10:33:25.059Z,8.60
2018-07-11T10:35:53.597Z,9.77
2018-07-11T10:38:21.953Z,8.70
2018-07-11T10:40:50.416Z,8.27
2018-07-11T10:43:18.802Z,8.37
2018-07-11T10:45:47.180Z,8.27
2018-07-11T10:48:15.565Z,7.90
2018-07-11T10:50:43.919Z,7.50
2018-07-11T10:53:12.369Z,8.40
2018-07-11T10:55:40.745Z,8.57
2018-07-11T10:58:09.097Z,8.10
2018-07-11T11:00:37.752Z,7.93
2018-07-11T11:03:06.151Z,8.60
2018-07-11T11:05:34.505Z,8.30
2018-07-11T11:08:02.956Z,7.53
2018-07-11T11:10:31.304Z,7.90
2018-07-11T11:12:59.669Z,7.13
2018-07-11T11:15:28.030Z,7.03
2018-07-11T11:17:56.401Z,6.50
2018-07-11T11:20:24.812Z,7.17
2018-07-11T11:22:53.229Z,6.60
2018-07-11T11:25:21.612Z,5.43
2018-07-11T11:27:50.008Z,6.00
2018-07-11T11:30:18.374Z,6.33
2018-07-11T11:32:46.753Z,5.80
2018-07-11T11:35:15.105Z,5.83
2018-07-11T11:37:43.520Z,6.37
2018-07-11T11:40:11.864Z,5.80
2018-07-11T11:42:40.643Z,6.43
2018-07-11T11:45:08.981Z,6.00
2018-07-11T11:47:37.421Z,6.60
2018-07-11T11:50:05.826Z,5.77
2018-07-11T11:52:34.276Z,6.70
2018-07-11T11:55:02.629Z,5.47
2018-07-11T11:57:31.111Z,5.87
2018-07-11T11:59:59.504Z,6.30
2018-07-11T12:02:27.892Z,5.50
2018-07-11T12:04:56.381Z,5.33
2018-07-11T12:07:24.733Z,4.47
2018-07-11T12:09:53.114Z,5.00
2018-07-11T12:12:21.500Z,4.20
2018-07-11T12:14:49.849Z,4.20
2018-07-11T12:17:18.241Z,4.67
2018-07-11T12:19:47.344Z,4.30
2018-07-11T12:22:22.802Z,5.23
2018-07-11T12:24:51.632Z,4.60
2018-07-11T12:27:20.221Z,4.27
2018-07-11T12:29:49.408Z,3.10
2018-07-11T12:32:17.745Z,4.13
2018-07-11T12:34:46.262Z,3.63
2018-07-11T12:37:15.546Z,2.97
2018-07-11T12:39:44.178Z,2.40
2018-07-11T12:42:12.590Z,3.13
2018-07-11T12:44:40.969Z,2.60
2018-07-11T12:47:14.730Z,2.73
2018-07-11T12:49:43.156Z,2.77
2018-07-11T12:52:11.565Z,2.30
2018-07-11T12:54:39.973Z,2.27
2018-07-11T12:57:08.774Z,2.87
2018-07-11T12:59:37.242Z,2.80
2018-07-11T13:02:05.647Z,2.40
2018-07-11T13:04:34.106Z,2.87
2018-07-11T13:07:03.117Z,2.43
2018-07-11T13:09:31.538Z,2.80
2018-07-11T13:12:00.491Z,3.13
2018-07-11T13:14:28.845Z,2.77
2018-07-11T13:16:57.262Z,3.00
2018-07-11T13:19:25.653Z,2.40
2018-07-11T13:21:54.097Z,3.50
2018-07-11T13:24:22.445Z,3.40
2018-07-11T13:26:50.818Z,3.43
2018-07-11T13:29:18.890Z,3.73
2018-07-11T13:31:47.541Z,4.30
2018-07-11T13:34:15.964Z,3.70
2018-07-11T13:36:44.360Z,4.10
2018-07-11T13:39:17.892Z,3.40
2018-07-11T13:41:47.033Z,3.53
2018-07-11T13:44:15.405Z,3.40
2018-07-11T13:46:43.816Z,3.80
2018-07-11T13:49:12.774Z,3.63
2018-07-11T13:51:41.216Z,3.03
2018-07-11T13:54:09.965Z,3.40
2018-07-11T13:56:38.325Z,3.10
2018-07-11T13:59:06.697Z,3.10
2018-07-11T14:01:35.105Z,4.07
2018-07-11T14:04:03.792Z,3.60
2018-07-11T14:06:32.162Z,3.43
2018-07-11T14:09:01.180Z,3.80
2018-07-11T14:11:29.521Z,3.33
2018-07-11T14:13:57.975Z,3.40
2018-07-11T14:16:26.338Z,4.03
2018-07-11T14:18:54.753Z,3.60
2018-07-11T14:21:23.337Z,3.53
2018-07-11T14:23:52.041Z,3.97
2018-07-11T14:26:20.846Z,3.70
2018-07-11T14:28:50.489Z,3.90
2018-07-11T14:31:36.097Z,4.27
2018-07-11T14:34:07.269Z,3.07
2018-07-11T14:36:36.076Z,3.80
2018-07-11T14:39:05.718Z,3.90
2018-07-11T14:41:34.212Z,3.63
2018-07-11T14:44:02.633Z,3.97
2018-07-11T14:46:31.446Z,3.57
2018-07-11T14:49:00.241Z,3.53
2018-07-11T14:51:28.774Z,4.20
2018-07-11T14:53:57.764Z,4.13
2018-07-11T14:56:26.171Z,4.60
2018-07-11T14:58:56.446Z,4.43
2018-07-11T15:01:25.156Z,4.13
2018-07-11T15:03:53.845Z,4.23
2018-07-11T15:06:23.088Z,4.50
2018-07-11T15:08:51.893Z,5.87
2018-07-11T15:11:20.716Z,6.10
2018-07-11T15:13:49.272Z,5.93
2018-07-11T15:16:17.949Z,8.87
2018-07-11T15:18:46.548Z,10.00
2018-07-11T15:21:15.261Z,9.63
2018-07-11T15:23:43.674Z,9.23
2018-07-11T15:26:12.121Z,10.83
2018-07-11T15:28:40.665Z,10.57
2018-07-11T15:31:09.053Z,11.00
2018-07-11T15:33:37.457Z,10.93
2018-07-11T15:36:05.837Z,11.93
2018-07-11T15:38:34.230Z,13.60
2018-07-11T15:41:02.641Z,13.50
2018-07-11T15:43:31.100Z,14.20
2018-07-11T15:45:59.820Z,14.50
2018-07-11T15:48:28.616Z,13.83
2018-07-11T15:50:57.248Z,13.43
2018-07-11T15:53:27.167Z,14.43
2018-07-11T15:55:55.601Z,13.87
2018-07-11T15:58:26.519Z,13.43
2018-07-11T16:00:55.517Z,13.60
2018-07-11T16:03:26.049Z,13.60
2018-07-11T16:05:55.608Z,12.43
2018-07-11T16:08:23.977Z,12.97
2018-07-11T16:10:54.121Z,13.50
2018-07-11T16:13:22.572Z,17.30
2018-07-11T16:15:51.053Z,11.83
2018-07-11T16:18:19.378Z,12.93
2018-07-11T16:20:47.864Z,13.10
2018-07-11T16:23:16.264Z,12.27
2018-07-11T16:25:44.966Z,13.23
2018-07-11T16:28:13.402Z,13.40
2018-07-11T16:30:41.799Z,12.67
2018-07-11T16:33:10.174Z,14.07
2018-07-11T16:35:38.617Z,13.40
2018-07-11T16:38:07.001Z,13.50
2018-07-11T16:40:35.393Z,13.60
2018-07-11T16:43:04.019Z,14.57
2018-07-11T16:45:32.461Z,14.87
2018-07-11T16:48:01.087Z,14.30
2018-07-11T16:50:29.521Z,15.17
2018-07-11T16:52:58.210Z,14.93
2018-07-11T16:55:27.292Z,15.60
2018-07-11T16:57:56.292Z,14.20
2018-07-11T17:00:33.592Z,16.03
2018-07-11T17:03:10.059Z,16.20
2018-07-11T17:05:48.041Z,18.03
2018-07-11T17:08:18.558Z,16.17
2018-07-11T17:10:46.989Z,17.30
2018-07-11T17:13:20.832Z,18.50
2018-07-11T17:15:50.631Z,17.20
2018-07-11T17:18:52.348Z,18.30
2018-07-11T17:21:34.620Z,19.63
2018-07-11T17:24:06.865Z,18.60
2018-07-11T17:26:35.945Z,17.37
2018-07-11T17:29:04.420Z,18.00
2018-07-11T17:31:34.610Z,17.23
2018-07-11T17:34:04.005Z,13.03
2018-07-11T17:36:33.946Z,13.83
2018-07-11T17:39:04.440Z,14.53
2018-07-11T17:41:33.350Z,15.43
2018-07-11T17:44:03.204Z,16.37
2018-07-11T17:46:32.613Z,18.50
2018-07-11T17:49:12.561Z,20.30
2018-07-11T17:51:49.934Z,20.30
2018-07-11T17:54:18.382Z,21.37
2018-07-11T17:56:54.340Z,20.50
2018-07-11T17:59:29.016Z,22.17
2018-07-11T18:01:58.517Z,21.70
2018-07-11T18:04:39.026Z,23.73
2018-07-11T18:07:14.661Z,22.53
2018-07-11T18:09:54.379Z,21.80
2018-07-11T18:12:24.885Z,21.10
2018-07-11T18:15:17.808Z,20.83
2018-07-11T18:18:22.978Z,21.00
2018-07-11T18:20:56.605Z,23.50
2018-07-11T18:23:37.985Z,21.40
2018-07-11T18:26:46.941Z,22.73
2018-07-11T18:29:26.709Z,25.07
2018-07-11T18:33:06.698Z,29.27
2018-07-11T18:36:53.900Z,25.40
2018-07-11T18:40:07.641Z,23.73
2018-07-11T18:42:41.998Z,24.03
2018-07-11T18:46:48.593Z,21.70
2018-07-11T18:49:26.057Z,21.47
2018-07-11T18:52:39.737Z,21.77
2018-07-11T18:55:15.566Z,22.77
2018-07-11T18:57:58.662Z,24.30
2018-07-11T19:00:38.450Z,24.30
2018-07-11T19:03:32.649Z,22.30
2018-07-11T19:06:15.962Z,24.63
2018-07-11T19:09:24.237Z,24.17
2018-07-11T19:11:55.941Z,24.67
2018-07-11T19:14:35.070Z,25.10
2018-07-11T19:17:28.713Z,25.10
2018-07-11T19:20:13.745Z,24.20
2018-07-11T19:22:49.397Z,24.00
2018-07-11T19:25:33.314Z,24.03
2018-07-11T19:28:22.521Z,25.87
2018-07-11T19:31:01.810Z,24.20
2018-07-11T19:33:41.664Z,26.80
2018-07-11T19:36:18.456Z,24.47
2018-07-11T19:39:01.892Z,25.90
2018-07-11T19:41:44.782Z,25.20
2018-07-11T19:46:28.780Z,24.53
2018-07-11T19:49:07.821Z,24.20
2018-07-11T19:51:46.560Z,26.70
2018-07-11T19:54:24.093Z,25.03
2018-07-11T19:56:52.728Z,27.03
2018-07-11T19:59:21.273Z,27.90
2018-07-11T20:01:49.656Z,26.13
2018-07-11T20:04:18.188Z,27.10
2018-07-11T20:06:46.590Z,26.77
2018-07-11T20:09:15.253Z,28.60
2018-07-11T20:11:43.658Z,28.40
2018-07-11T20:14:12.113Z,27.63
2018-07-11T20:16:40.524Z,27.10
2018-07-11T20:19:08.996Z,28.47
2018-07-11T20:21:37.346Z,29.47
2018-07-11T20:24:05.712Z,28.70
2018-07-11T20:26:34.097Z,31.37
2018-07-11T20:29:02.633Z,30.47
2018-07-11T20:31:30.984Z,32.33
2018-07-11T20:33:59.342Z,29.07
2018-07-11T20:36:27.813Z,31.17
2018-07-11T20:38:56.881Z,31.90
2018-07-11T20:41:25.289Z,31.40
2018-07-11T20:43:53.890Z,34.53
2018-07-11T20:46:22.346Z,31.90
2018-07-11T20:48:50.926Z,34.17
2018-07-11T20:51:19.469Z,34.60
2018-07-11T20:53:47.890Z,35.80
2018-07-11T20:56:16.241Z,35.53
2018-07-11T20:58:55.973Z,38.17
2018-07-11T21:01:35.608Z,41.90
2018-07-11T21:04:15.482Z,39.90
2018-07-11T21:06:55.241Z,42.07
2018-07-11T21:10:36.149Z,42.00
2018-07-11T21:13:23.460Z,39.60
2018-07-11T21:18:16.397Z,41.80
2018-07-11T21:20:44.769Z,41.00
2018-07-11T21:23:13.128Z,42.67
2018-07-11T21:25:41.484Z,44.83
2018-07-11T21:28:09.853Z,40.33
2018-07-11T21:30:38.197Z,39.80
2018-07-11T21:33:06.558Z,42.90
2018-07-11T21:35:35.100Z,41.60
2018-07-11T21:38:03.824Z,44.90
2018-07-11T21:40:32.238Z,44.60
2018-07-11T21:43:00.608Z,48.00
2018-07-11T21:45:29.026Z,47.30
2018-07-11T21:47:57.384Z,47.73
2018-07-11T21:50:25.757Z,46.30
2018-07-11T21:52:54.090Z,42.30
2018-07-11T21:55:22.465Z,44.87
2018-07-11T21:57:50.788Z,44.73
2018-07-11T22:00:30.537Z,41.83
2018-07-11T22:02:58.929Z,42.83
2018-07-11T22:05:28.433Z,45.50
2018-07-11T22:07:56.866Z,43.27
2018-07-11T22:10:25.420Z,44.67
2018-07-11T22:12:53.753Z,43.87
2018-07-11T22:15:22.121Z,47.27
2018-07-11T22:18:01.757Z,46.60
2018-07-11T22:20:29.392Z,45.57
2018-07-11T22:22:56.641Z,43.83
2018-07-11T22:25:23.909Z,46.77
2018-07-11T22:27:51.177Z,46.83
2018-07-11T22:30:18.445Z,49.97
2018-07-11T22:32:45.709Z,52.13
2018-07-11T22:35:13.037Z,53.67
2018-07-11T22:37:40.321Z,52.17
2018-07-11T22:40:07.661Z,50.77
2018-07-11T22:42:34.908Z,54.77
2018-07-11T22:45:02.209Z,53.87
2018-07-11T22:47:29.485Z,53.73
2018-07-11T22:49:58.872Z,52.10
2018-07-11T22:52:27.595Z,51.47
2018-07-11T22:54:55.172Z,51.90
2018-07-11T22:57:22.440Z,48.90
2018-07-11T22:59:50.446Z,53.20
2018-07-11T23:02:17.913Z,56.33
2018-07-11T23:04:45.190Z,55.40
2018-07-11T23:07:12.449Z,60.67
2018-07-11T23:09:39.729Z,58.07
2018-07-11T23:12:07.142Z,58.23
2018-07-11T23:14:34.728Z,58.47
2018-07-11T23:17:02.904Z,56.80
2018-07-11T23:19:30.406Z,55.37
2018-07-11T23:21:58.190Z,56.57
2018-07-11T23:24:25.677Z,55.30
2018-07-11T23:26:53.149Z,56.90
2018-07-11T23:29:20.640Z,51.17
2018-07-11T23:31:47.926Z,55.30
2018-07-11T23:34:15.197Z,52.80
2018-07-11T23:36:42.452Z,56.37
2018-07-11T23:39:10.768Z,57.00
2018-07-11T23:41:38.057Z,56.83
2018-07-11T23:44:05.437Z,54.77
2018-07-11T23:46:32.713Z,56.57
2018-07-11T23:48:59.964Z,55.90
2018-07-11T23:51:27.255Z,54.93
2018-07-11T23:53:54.509Z,55.90
2018-07-11T23:56:21.784Z,51.93
2018-07-11T23:58:49.041Z,52.70
